Waco, Texas
Current Conditions -  °F | °C
As of 11:51 AM on Monday 26 Jan 2015 (Local Time) from KACT Reporting Station
Clear Clear  
Wind Chill: 61°   Ceiling: Unl
Heat Index: 61°   Visibility: 10mi
Dew Point: 33°   Wind: 7mph
Humidity: 35%   Direction: 210°SSW
Pressure: 30.24"   Gusts: NA
Location:  31.57°N, 97.15°W
Report Text: KACT 261751Z 21006KT 10SM CLR 16/01 A3024 RMK AO2 SLP237 T01610006 10161 21011 58010
Loading
Personal Weather Stations






























Interactive Weather Map New forecast layout! Learn more

10-Day Weather Forecast

Advertisements
Track Severe Weather on mobile